Time;durP1;ratioP1;P1;durP2;ratioP2;P2;SDS_P1;SDS_P2;PMS_P1;PMS_P2;Temp;Humidity;BMP_temperature;BMP_pressure;BME280_temperature;BME280_humidity;BME280_pressure;Samples;Min_cycle;Max_cycle;Signal;HPM_P1;HPM_P2
2022/04/29 00:00:09;;;;;;;4.93;2.15;;;;;;;6.24;100.00;102492.22;5103034;28;20084;-44
2022/04/29 00:02:35;;;;;;;2.17;1.70;;;;;;;6.24;100.00;102494.84;5102387;28;20028;-51
2022/04/29 00:05:01;;;;;;;4.65;2.20;;;;;;;6.28;100.00;102493.69;5104732;28;20139;-47
2022/04/29 00:07:27;;;;;;;5.57;3.08;;;;;;;6.29;100.00;102503.25;5104475;28;20486;-44
2022/04/29 00:09:52;;;;;;;3.25;2.95;;;;;;;6.31;100.00;102505.78;5101944;28;20404;-48
2022/04/29 00:12:19;;;;;;;7.05;2.75;;;;;;;6.31;100.00;102501.34;5088080;28;20392;-46
2022/04/29 00:14:44;;;;;;;5.15;2.75;;;;;;;6.30;100.00;102497.06;5099925;28;20040;-46
2022/04/29 00:17:10;;;;;;;5.78;3.00;;;;;;;6.32;100.00;102496.91;5107922;28;20051;-47
2022/04/29 00:19:35;;;;;;;4.57;2.67;;;;;;;6.36;100.00;102487.00;5099237;28;20027;-46
2022/04/29 00:22:01;;;;;;;12.02;3.08;;;;;;;6.36;100.00;102490.47;5102620;28;20047;-47
2022/04/29 00:24:26;;;;;;;4.10;2.30;;;;;;;6.34;100.00;102482.69;5106344;28;20024;-47
2022/04/29 00:26:51;;;;;;;3.97;2.05;;;;;;;6.35;100.00;102483.53;5074895;28;20028;-47
2022/04/29 00:29:17;;;;;;;4.88;3.30;;;;;;;6.33;100.00;102478.38;5104224;28;20054;-49
2022/04/29 00:31:43;;;;;;;4.15;3.10;;;;;;;6.28;100.00;102485.78;5101085;28;20031;-48
2022/04/29 00:34:08;;;;;;;4.18;2.60;;;;;;;6.24;100.00;102486.94;5094432;28;20043;-46
2022/04/29 00:36:33;;;;;;;4.45;2.95;;;;;;;6.26;100.00;102476.31;5104044;28;20027;-47
2022/04/29 00:38:59;;;;;;;6.10;2.25;;;;;;;6.28;100.00;102477.03;5103017;28;20030;-46
2022/04/29 00:41:24;;;;;;;5.82;3.08;;;;;;;6.33;100.00;102478.38;5102261;28;20543;-46
2022/04/29 00:44:08;;;;;;;7.88;4.22;;;;;;;6.36;100.00;102477.31;5098884;28;20067;-50
2022/04/29 00:46:44;;;;;;;4.15;2.30;;;;;;;6.36;100.00;102476.47;5101352;28;20110;-47
2022/04/29 00:49:13;;;;;;;7.40;3.80;;;;;;;6.38;100.00;102472.78;5091281;28;20035;-45
2022/04/29 00:51:41;;;;;;;3.10;2.22;;;;;;;6.42;100.00;102468.09;5104425;28;20020;-50
2022/04/29 00:54:18;;;;;;;6.00;3.58;;;;;;;6.42;100.00;102461.03;5107565;28;20043;-47
2022/04/29 00:56:47;;;;;;;8.00;4.47;;;;;;;6.43;100.00;102459.22;5096679;28;20031;-48
2022/04/29 00:59:16;;;;;;;5.10;3.00;;;;;;;6.39;100.00;102456.00;5098502;28;20031;-49
2022/04/29 01:01:44;;;;;;;6.38;3.05;;;;;;;6.34;100.00;102456.34;5096030;28;20065;-50
2022/04/29 01:04:12;;;;;;;4.32;2.90;;;;;;;6.32;100.00;102454.75;5107629;28;20051;-51
2022/04/29 01:06:37;;;;;;;7.32;2.85;;;;;;;6.27;100.00;102446.38;5102621;28;20027;-50
2022/04/29 01:09:03;;;;;;;4.28;2.85;;;;;;;6.24;100.00;102447.44;5098884;28;20035;-46
2022/04/29 01:11:28;;;;;;;9.98;2.75;;;;;;;6.22;100.00;102449.38;5101707;28;20028;-48
2022/04/29 01:13:54;;;;;;;6.22;3.20;;;;;;;6.14;100.00;102441.16;5107642;28;20064;-46
2022/04/29 01:16:21;;;;;;;5.38;3.35;;;;;;;6.09;100.00;102438.03;5107652;28;20383;-49
2022/04/29 01:18:52;;;;;;;4.05;2.75;;;;;;;6.11;100.00;102444.03;5104089;28;20184;-50
2022/04/29 01:21:18;;;;;;;7.13;2.40;;;;;;;6.14;100.00;102435.06;5093861;28;20035;-46
2022/04/29 01:23:44;;;;;;;4.15;2.30;;;;;;;6.12;100.00;102432.56;5098875;28;20032;-50
2022/04/29 01:26:14;;;;;;;8.45;5.13;;;;;;;6.06;100.00;102427.75;5101763;28;20041;-45
2022/04/29 01:28:42;;;;;;;6.72;2.85;;;;;;;5.97;100.00;102425.81;5101079;28;20107;-51
2022/04/29 01:31:11;;;;;;;5.68;3.63;;;;;;;5.97;100.00;102421.38;5101996;28;20485;-47
2022/04/29 01:33:40;;;;;;;8.10;2.63;;;;;;;5.93;100.00;102419.03;5099889;28;20024;-49
2022/04/29 01:36:06;;;;;;;6.22;2.80;;;;;;;5.79;100.00;102410.38;5099603;28;20085;-49
2022/04/29 01:38:31;;;;;;;3.90;3.13;;;;;;;5.71;100.00;102412.72;5095798;28;20424;-47
2022/04/29 01:40:56;;;;;;;5.40;3.63;;;;;;;5.66;100.00;102409.59;5103779;28;20540;-47
2022/04/29 01:43:22;;;;;;;5.20;3.92;;;;;;;5.65;100.00;102406.13;5098033;28;20027;-46
2022/04/29 01:45:47;;;;;;;8.75;4.30;;;;;;;5.63;100.00;102404.56;5107606;28;20230;-48
2022/04/29 01:48:13;;;;;;;9.32;3.42;;;;;;;5.56;100.00;102396.25;5107257;28;20023;-49
2022/04/29 01:50:38;;;;;;;7.45;4.25;;;;;;;5.43;100.00;102404.19;5107200;28;20032;-49
2022/04/29 01:53:03;;;;;;;4.30;3.05;;;;;;;5.33;100.00;102403.16;5103006;28;20352;-45
2022/04/29 01:55:29;;;;;;;8.32;3.75;;;;;;;5.31;100.00;102398.97;5105476;28;20046;-48
2022/04/29 01:57:56;;;;;;;7.82;3.60;;;;;;;5.27;100.00;102400.13;5087369;28;20437;-49
2022/04/29 02:00:22;;;;;;;2.85;2.58;;;;;;;5.20;100.00;102407.63;5104983;28;20027;-47
2022/04/29 02:02:47;;;;;;;8.27;4.45;;;;;;;5.14;100.00;102403.66;5097573;28;20035;-46
2022/04/29 02:05:13;;;;;;;8.88;2.70;;;;;;;5.14;100.00;102408.06;5099883;28;20081;-49
2022/04/29 02:07:40;;;;;;;4.45;3.05;;;;;;;5.14;100.00;102398.38;5108442;28;20027;-46
2022/04/29 02:10:06;;;;;;;6.88;3.85;;;;;;;5.13;100.00;102401.94;5100008;28;20127;-49
2022/04/29 02:12:33;;;;;;;5.90;4.60;;;;;;;5.12;100.00;102399.44;5103606;28;20535;-48
2022/04/29 02:14:59;;;;;;;7.13;3.38;;;;;;;5.09;100.00;102405.75;5100599;28;20426;-49
2022/04/29 02:17:24;;;;;;;7.60;3.53;;;;;;;5.08;100.00;102404.06;5105446;28;20036;-50
2022/04/29 02:19:49;;;;;;;4.25;3.05;;;;;;;5.08;100.00;102405.84;5097037;28;20042;-49
2022/04/29 02:22:15;;;;;;;9.63;2.60;;;;;;;5.03;100.00;102404.41;5095466;28;20528;-49
2022/04/29 02:24:42;;;;;;;5.43;3.28;;;;;;;4.99;100.00;102409.97;5108683;28;20107;-46
2022/04/29 02:27:08;;;;;;;13.93;3.97;;;;;;;4.95;100.00;102409.34;5094903;28;20101;-53
2022/04/29 02:29:34;;;;;;;7.20;3.40;;;;;;;4.93;100.00;102400.75;5107384;28;20480;-47
2022/04/29 02:31:59;;;;;;;7.38;3.80;;;;;;;4.91;100.00;102402.63;5104859;28;20015;-47
2022/04/29 02:34:25;;;;;;;7.32;3.80;;;;;;;4.92;100.00;102400.84;5106217;28;20035;-48
2022/04/29 02:36:51;;;;;;;6.93;4.00;;;;;;;4.93;100.00;102399.88;5105112;28;20357;-47
2022/04/29 02:39:16;;;;;;;8.32;3.75;;;;;;;4.92;100.00;102396.41;5102918;28;20031;-47
2022/04/29 02:41:42;;;;;;;6.90;3.83;;;;;;;4.93;100.00;102394.63;5108679;28;20039;-48
2022/04/29 02:44:07;;;;;;;8.75;3.00;;;;;;;4.92;100.00;102393.78;5107581;28;20060;-47
2022/04/29 02:46:33;;;;;;;5.57;4.40;;;;;;;4.92;100.00;102396.41;5100798;28;20066;-48
2022/04/29 02:48:59;;;;;;;6.72;3.67;;;;;;;4.88;100.00;102392.34;5107638;28;20024;-49
2022/04/29 02:51:25;;;;;;;5.38;3.42;;;;;;;4.86;100.00;102404.72;5110572;28;20028;-48
2022/04/29 02:53:51;;;;;;;9.90;2.78;;;;;;;4.82;100.00;102401.47;5108367;28;20429;-51
2022/04/29 02:56:19;;;;;;;8.10;4.05;;;;;;;4.81;100.00;102397.16;5101347;28;20552;-46
2022/04/29 02:58:45;;;;;;;3.53;3.22;;;;;;;4.80;100.00;102405.13;5104087;28;20429;-49
2022/04/29 03:01:10;;;;;;;4.07;3.03;;;;;;;4.82;100.00;102390.94;5108736;28;20110;-45
2022/04/29 03:03:36;;;;;;;5.40;3.40;;;;;;;4.82;100.00;102406.72;5113766;28;20066;-46
2022/04/29 03:06:01;;;;;;;7.03;2.88;;;;;;;4.82;100.00;102400.63;5102411;28;20028;-49
2022/04/29 03:08:27;;;;;;;7.93;3.90;;;;;;;4.80;100.00;102406.00;5102586;28;20024;-46
2022/04/29 03:10:52;;;;;;;8.88;2.80;;;;;;;4.80;100.00;102405.13;5106345;28;20054;-47
2022/04/29 03:13:18;;;;;;;6.72;4.07;;;;;;;4.78;100.00;102399.19;5101549;28;20437;-49
2022/04/29 03:15:43;;;;;;;12.43;5.07;;;;;;;4.74;100.00;102406.41;5099389;28;20031;-49
2022/04/29 03:18:23;;;;;;;6.75;3.38;;;;;;;4.70;100.00;102404.09;5105259;28;20088;-51
2022/04/29 03:20:52;;;;;;;7.03;2.95;;;;;;;4.59;100.00;102397.81;5105127;28;20036;-48
2022/04/29 03:23:18;;;;;;;6.65;2.88;;;;;;;4.54;100.00;102394.66;5104527;28;20028;-48
2022/04/29 03:25:44;;;;;;;5.03;3.05;;;;;;;4.54;100.00;102388.53;5099336;28;20435;-48
2022/04/29 03:28:09;;;;;;;5.72;2.92;;;;;;;4.50;100.00;102392.34;5088955;28;20031;-47
2022/04/29 03:30:36;;;;;;;4.80;3.22;;;;;;;4.51;100.00;102394.00;5101996;28;20472;-49
2022/04/29 03:33:05;;;;;;;6.35;3.90;;;;;;;4.45;100.00;102392.66;5107194;28;20035;-46
2022/04/29 03:35:31;;;;;;;14.48;4.85;;;;;;;4.40;100.00;102401.78;5095695;28;20514;-49
2022/04/29 03:37:57;;;;;;;11.38;5.47;;;;;;;4.33;100.00;102402.19;5107555;28;20089;-45
2022/04/29 03:40:24;;;;;;;5.28;2.53;;;;;;;4.32;100.00;102397.06;5101788;28;20293;-47
2022/04/29 03:42:55;;;;;;;6.90;4.03;;;;;;;4.28;100.00;102390.31;5107211;28;20499;-46
2022/04/29 03:45:22;;;;;;;6.75;3.30;;;;;;;4.24;100.00;102383.59;5108107;28;20083;-46
2022/04/29 03:47:48;;;;;;;7.90;3.55;;;;;;;4.18;100.00;102382.22;5090692;28;20091;-49
2022/04/29 03:50:14;;;;;;;2.60;2.38;;;;;;;4.14;100.00;102391.25;5099888;28;20119;-47
2022/04/29 03:52:51;;;;;;;8.32;2.72;;;;;;;4.11;100.00;102392.28;5110557;28;20052;-47
2022/04/29 03:55:23;;;;;;;7.63;3.13;;;;;;;4.11;100.00;102386.22;5105176;28;20058;-49
2022/04/29 03:57:49;;;;;;;11.85;4.15;;;;;;;4.06;100.00;102388.28;5108648;28;20039;-46
2022/04/29 04:00:15;;;;;;;6.22;2.80;;;;;;;4.02;100.00;102387.63;5104353;28;20059;-47
2022/04/29 04:02:41;;;;;;;4.95;3.22;;;;;;;3.99;100.00;102392.25;5090331;28;20028;-46
2022/04/29 04:05:08;;;;;;;7.20;3.33;;;;;;;3.96;100.00;102393.31;5091191;28;20039;-46
2022/04/29 04:07:33;;;;;;;6.85;3.55;;;;;;;3.95;100.00;102386.38;5113416;28;20064;-48
2022/04/29 04:09:59;;;;;;;13.95;4.80;;;;;;;3.92;100.00;102383.94;5110313;28;20115;-49
2022/04/29 04:12:24;;;;;;;5.97;3.20;;;;;;;3.89;100.00;102381.53;5108911;28;20123;-47
2022/04/29 04:14:50;;;;;;;3.45;2.72;;;;;;;3.87;100.00;102389.53;5093695;28;20031;-50
2022/04/29 04:17:16;;;;;;;7.05;3.75;;;;;;;3.88;100.00;102396.44;5102768;28;20032;-49
2022/04/29 04:19:42;;;;;;;7.18;4.00;;;;;;;3.89;100.00;102381.53;5113448;28;20111;-48
2022/04/29 04:22:07;;;;;;;6.03;2.80;;;;;;;3.90;100.00;102389.31;5109451;28;20144;-46
2022/04/29 04:24:33;;;;;;;10.70;4.18;;;;;;;3.89;100.00;102382.34;5109815;28;20448;-47
2022/04/29 04:26:58;;;;;;;3.25;2.80;;;;;;;3.87;100.00;102389.53;5095096;28;20142;-47
2022/04/29 04:29:23;;;;;;;5.93;3.05;;;;;;;3.83;100.00;102387.19;5109946;28;20030;-50
2022/04/29 04:31:49;;;;;;;9.98;6.15;;;;;;;3.77;100.00;102377.06;5104733;28;20045;-50
2022/04/29 04:36:59;;;;;;;4.30;3.47;;;;;;;3.69;100.00;102388.94;5088108;28;20121;-47
2022/04/29 04:39:24;;;;;;;5.07;3.33;;;;;;;3.66;100.00;102394.34;5087129;28;20032;-48
2022/04/29 04:41:50;;;;;;;4.63;3.95;;;;;;;3.68;100.00;102397.72;5070981;28;20028;-47
2022/04/29 04:44:17;;;;;;;7.07;2.92;;;;;;;3.69;100.00;102393.31;5093123;28;20035;-49
2022/04/29 04:46:42;;;;;;;10.80;4.13;;;;;;;3.64;100.00;102392.78;5097604;28;20058;-47
2022/04/29 04:49:08;;;;;;;6.47;4.40;;;;;;;3.61;100.00;102399.06;5078946;28;20131;-50
2022/04/29 04:51:33;;;;;;;9.93;3.75;;;;;;;3.60;100.00;102400.00;5093079;28;20470;-52
2022/04/29 04:53:59;;;;;;;7.20;3.40;;;;;;;3.61;100.00;102399.06;5088116;28;20436;-46
2022/04/29 04:56:24;;;;;;;5.95;2.47;;;;;;;3.62;100.00;102410.41;5073521;28;20062;-46
2022/04/29 04:58:49;;;;;;;5.50;3.22;;;;;;;3.65;100.00;102410.22;5090976;28;20077;-45
2022/04/29 05:01:15;;;;;;;6.40;4.63;;;;;;;3.65;100.00;102416.28;5099674;28;20056;-46
2022/04/29 05:03:41;;;;;;;6.22;3.13;;;;;;;3.66;100.00;102415.34;5098790;28;20039;-48
2022/04/29 05:06:06;;;;;;;5.70;3.67;;;;;;;3.71;100.00;102420.28;5090924;28;20035;-50
2022/04/29 05:08:31;;;;;;;2.72;1.85;;;;;;;3.74;100.00;102424.50;5091701;28;20063;-47
2022/04/29 05:10:57;;;;;;;6.75;4.78;;;;;;;3.77;100.00;102409.44;5093460;28;20417;-47
2022/04/29 05:13:22;;;;;;;3.13;1.98;;;;;;;3.80;100.00;102419.72;5093725;28;20050;-50
2022/04/29 05:15:47;;;;;;;4.55;2.75;;;;;;;3.87;100.00;102430.63;5099837;28;20383;-48
2022/04/29 05:18:13;;;;;;;3.38;2.08;;;;;;;3.89;100.00;102428.75;5091585;28;20039;-47
2022/04/29 05:20:38;;;;;;;7.03;3.80;;;;;;;3.94;100.00;102430.13;5105314;28;20093;-48
2022/04/29 05:23:03;;;;;;;4.38;2.30;;;;;;;3.98;100.00;102435.22;5097049;28;20032;-47
2022/04/29 05:25:29;;;;;;;3.15;2.42;;;;;;;4.06;100.00;102439.00;5092323;28;20026;-48
2022/04/29 05:27:54;;;;;;;2.95;2.25;;;;;;;4.07;100.00;102438.06;5090866;28;20040;-46
2022/04/29 05:30:19;;;;;;;9.60;3.38;;;;;;;4.09;100.00;102438.81;5093775;28;20028;-48
2022/04/29 05:32:46;;;;;;;4.32;2.72;;;;;;;4.13;100.00;102436.81;5096881;28;20027;-49
2022/04/29 05:35:13;;;;;;;3.53;3.22;;;;;;;4.24;100.00;102436.97;5093798;28;20679;-46
2022/04/29 05:37:40;;;;;;;8.15;2.15;;;;;;;4.29;100.00;102431.41;5100980;28;20058;-46
2022/04/29 05:42:50;;;;;;;4.85;2.78;;;;;;;4.42;100.00;102442.78;5099583;28;20074;-47
2022/04/29 05:45:15;;;;;;;7.53;2.28;;;;;;;4.53;100.00;102444.66;5091544;28;20055;-48
2022/04/29 05:47:41;;;;;;;4.53;1.90;;;;;;;4.68;100.00;102445.44;5098906;28;20027;-49
2022/04/29 05:50:07;;;;;;;4.15;2.80;;;;;;;4.79;100.00;102451.63;5096042;28;20044;-45
2022/04/29 05:52:32;;;;;;;6.95;2.85;;;;;;;4.88;100.00;102439.66;5095262;28;20051;-47
2022/04/29 05:54:58;;;;;;;8.82;2.15;;;;;;;4.95;100.00;102434.78;5094594;28;20045;-49
2022/04/29 05:57:23;;;;;;;10.70;3.80;;;;;;;5.00;100.00;102432.69;5100346;28;20177;-46
2022/04/29 05:59:49;;;;;;;8.02;2.10;;;;;;;5.05;100.00;102430.56;5093729;28;20072;-47
2022/04/29 06:02:14;;;;;;;5.97;2.75;;;;;;;5.14;100.00;102426.47;5099703;28;20134;-46
2022/04/29 06:04:40;;;;;;;3.63;2.22;;;;;;;5.23;100.00;102420.56;5103172;28;20391;-47
2022/04/29 06:07:05;;;;;;;3.90;2.25;;;;;;;5.32;100.00;102427.81;5097778;28;20039;-46
2022/04/29 06:09:30;;;;;;;7.40;2.65;;;;;;;5.40;100.00;102420.19;5102300;28;20031;-46
2022/04/29 06:11:56;;;;;;;4.13;2.20;;;;;;;5.51;100.00;102431.75;5107333;28;20028;-50
2022/04/29 06:14:21;;;;;;;4.72;2.25;;;;;;;5.66;100.00;102436.75;5102475;28;20555;-47
2022/04/29 06:16:46;;;;;;;5.38;1.92;;;;;;;5.82;100.00;102440.88;5096279;28;20362;-45
2022/04/29 06:19:12;;;;;;;3.72;1.35;;;;;;;6.00;100.00;102436.09;5098095;28;20043;-48
2022/04/29 06:21:40;;;;;;;15.77;2.38;;;;;;;6.14;100.00;102443.81;5086212;28;20051;-47
2022/04/29 06:24:06;;;;;;;3.75;1.60;;;;;;;6.24;100.00;102447.44;5100134;28;20044;-45
2022/04/29 06:26:31;;;;;;;7.60;2.30;;;;;;;6.33;100.00;102448.56;5096956;28;20383;-48
2022/04/29 06:28:57;;;;;;;5.65;2.30;;;;;;;6.39;100.00;102440.19;5099173;28;20038;-46
2022/04/29 06:31:22;;;;;;;7.07;2.97;;;;;;;6.41;100.00;102434.81;5089033;28;20028;-46
2022/04/29 06:33:47;;;;;;;5.07;2.85;;;;;;;6.50;100.00;102447.28;5089707;28;20488;-48
2022/04/29 06:36:13;;;;;;;3.78;2.35;;;;;;;6.56;100.00;102454.72;5096497;28;20062;-50
2022/04/29 06:38:39;;;;;;;9.05;3.60;;;;;;;6.63;100.00;102461.19;5102921;28;20102;-46
2022/04/29 06:41:05;;;;;;;3.88;1.75;;;;;;;6.68;100.00;102451.13;5090686;28;20749;-49
2022/04/29 06:43:30;;;;;;;7.40;2.50;;;;;;;6.75;100.00;102444.44;5096224;28;20100;-46
2022/04/29 06:45:57;;;;;;;4.93;2.95;;;;;;;6.78;100.00;102464.47;5096328;28;20088;-47
2022/04/29 06:48:22;;;;;;;13.82;2.78;;;;;;;6.84;100.00;102461.38;5090436;28;20032;-46
2022/04/29 06:50:47;;;;;;;11.63;2.55;;;;;;;6.86;100.00;102451.53;5096102;28;20019;-50
2022/04/29 06:53:13;;;;;;;9.48;2.83;;;;;;;6.87;100.00;102449.75;5094571;28;20031;-46
2022/04/29 06:55:39;;;;;;;9.90;1.98;;;;;;;6.93;100.00;102460.66;5093646;28;20051;-46
2022/04/29 06:58:06;;;;;;;4.15;2.70;;;;;;;7.00;100.00;102463.66;5093548;28;20032;-51
2022/04/29 07:00:32;;;;;;;4.13;1.08;;;;;;;7.07;100.00;102454.28;5076452;28;20371;-50
2022/04/29 07:02:57;;;;;;;4.47;1.67;;;;;;;7.17;100.00;102460.53;5090714;28;20110;-48
2022/04/29 07:05:23;;;;;;;6.82;1.95;;;;;;;7.28;100.00;102464.13;5092120;28;20587;-46
2022/04/29 07:07:49;;;;;;;13.43;2.95;;;;;;;7.31;100.00;102464.75;5084264;28;20031;-46
2022/04/29 07:10:16;;;;;;;2.92;1.70;;;;;;;7.31;100.00;102455.97;5094573;28;20024;-47
2022/04/29 07:12:43;;;;;;;4.18;2.30;;;;;;;7.37;100.00;102455.50;5095041;28;20485;-46
2022/04/29 07:15:10;;;;;;;3.40;2.60;;;;;;;7.48;100.00;102449.34;5094768;28;20069;-49
2022/04/29 07:17:35;;;;;;;7.00;2.58;;;;;;;7.61;100.00;102450.03;5095027;28;20043;-46
2022/04/29 07:20:00;;;;;;;4.20;1.65;;;;;;;7.76;100.00;102448.81;5097041;28;20458;-49
2022/04/29 07:22:26;;;;;;;7.40;3.08;;;;;;;7.86;100.00;102439.16;5099127;28;20476;-48
2022/04/29 07:24:52;;;;;;;7.88;1.17;;;;;;;7.92;100.00;102437.81;5105587;28;20138;-49
2022/04/29 07:27:17;;;;;;;9.63;2.75;;;;;;;7.91;100.00;102441.44;5102840;28;20031;-51
2022/04/29 07:29:42;;;;;;;2.60;1.98;;;;;;;7.92;100.00;102448.38;5103902;28;20032;-49
2022/04/29 07:32:08;;;;;;;4.53;1.27;;;;;;;7.94;100.00;102443.00;5108102;28;20407;-51
2022/04/29 07:42:46;;;;;;;7.57;1.52;;;;;;;8.21;100.00;102455.72;5109041;28;20043;-47
2022/04/29 07:45:12;;;;;;;2.80;1.52;;;;;;;8.24;100.00;102444.91;5098382;28;20043;-46
2022/04/29 07:47:37;;;;;;;6.22;2.08;;;;;;;8.31;100.00;102451.34;5099126;28;20027;-50
2022/04/29 07:50:04;;;;;;;9.57;1.90;;;;;;;8.47;100.00;102445.66;5100190;28;20023;-51
2022/04/29 07:52:29;;;;;;;4.88;1.15;;;;;;;8.61;100.00;102436.56;5111425;28;20480;-50
2022/04/29 07:54:54;;;;;;;4.05;1.38;;;;;;;8.75;100.00;102441.50;5106971;28;20046;-46
2022/04/29 07:57:20;;;;;;;4.75;0.75;;;;;;;8.85;100.00;102449.50;5102187;28;20019;-46
2022/04/29 07:59:45;;;;;;;1.15;0.90;;;;;;;8.97;100.00;102445.78;5107151;28;20409;-48
2022/04/29 08:02:10;;;;;;;6.35;1.50;;;;;;;8.89;100.00;102435.03;5108351;28;20450;-51
2022/04/29 08:04:35;;;;;;;3.25;1.25;;;;;;;8.86;100.00;102436.16;5090049;28;20096;-48
2022/04/29 08:07:02;;;;;;;3.90;0.85;;;;;;;8.84;100.00;102430.13;5097926;28;20023;-47
2022/04/29 08:09:28;;;;;;;5.35;1.33;;;;;;;9.06;100.00;102429.13;5108660;28;20050;-48
2022/04/29 08:11:53;;;;;;;4.13;1.98;;;;;;;9.15;100.00;102430.13;5102289;28;20032;-49
2022/04/29 08:14:20;;;;;;;6.22;0.93;;;;;;;8.97;100.00;102423.78;5095416;28;20587;-46
2022/04/29 08:16:46;;;;;;;4.40;1.20;;;;;;;8.99;100.00;102432.44;5101051;28;20019;-47
2022/04/29 08:19:11;;;;;;;5.75;1.23;;;;;;;9.09;100.00;102442.09;5089943;28;20028;-48
2022/04/29 08:21:37;;;;;;;3.03;1.45;;;;;;;8.98;100.00;102444.81;5105271;28;20439;-49
2022/04/29 08:24:02;;;;;;;2.95;0.80;;;;;;;9.03;100.00;102447.91;5104125;28;20273;-47
2022/04/29 08:26:28;;;;;;;4.18;1.65;;;;;;;9.04;100.00;102452.25;5102654;28;20437;-46
2022/04/29 08:28:54;;;;;;;5.03;1.27;;;;;;;8.95;100.00;102448.56;5112270;27;20119;-51
2022/04/29 08:31:21;;;;;;;3.95;0.90;;;;;;;8.97;100.00;102455.53;5105533;28;20547;-49
2022/04/29 08:33:46;;;;;;;2.95;0.73;;;;;;;8.94;100.00;102449.53;5109013;28;20035;-51
2022/04/29 08:36:11;;;;;;;3.03;1.15;;;;;;;9.00;100.00;102455.28;5099692;28;20032;-50
2022/04/29 08:38:37;;;;;;;8.10;1.50;;;;;;;9.16;100.00;102455.59;5109119;28;20417;-48
2022/04/29 08:41:03;;;;;;;4.72;1.05;;;;;;;9.25;100.00;102452.19;5098422;28;20084;-49
2022/04/29 08:43:31;;;;;;;0.90;0.50;;;;;;;9.42;100.00;102445.38;5110297;28;20415;-48
2022/04/29 08:45:57;;;;;;;2.72;1.50;;;;;;;9.47;100.00;102442.34;5084124;28;20259;-51
2022/04/29 08:48:23;;;;;;;7.88;1.20;;;;;;;9.53;100.00;102441.81;5105104;28;20047;-47
2022/04/29 08:50:48;;;;;;;3.70;1.38;;;;;;;9.43;100.00;102451.53;5087098;28;20035;-47
2022/04/29 08:53:16;;;;;;;12.35;2.05;;;;;;;9.43;100.00;102452.38;5098681;28;20023;-49
2022/04/29 08:58:39;;;;;;;3.60;1.23;;;;;;;9.40;100.00;102457.94;5100891;28;20126;-47
2022/04/29 09:01:10;;;;;;;7.63;2.10;;;;;;;9.24;100.00;102453.16;5107172;28;20042;-49
2022/04/29 09:03:37;;;;;;;5.43;1.60;;;;;;;9.17;100.00;102463.44;5106013;28;20049;-48
2022/04/29 09:06:04;;;;;;;3.30;1.77;;;;;;;9.16;100.00;102463.56;5104672;28;20100;-47
2022/04/29 09:08:37;;;;;;;5.90;1.75;;;;;;;9.27;100.00;102465.28;5105604;28;20027;-53
2022/04/29 09:11:03;;;;;;;3.85;2.28;;;;;;;9.24;100.00;102462.88;5107326;28;20028;-51
2022/04/29 09:13:30;;;;;;;3.28;1.08;;;;;;;9.15;100.00;102462.72;5097340;28;20055;-49
2022/04/29 09:15:58;;;;;;;4.78;0.98;;;;;;;9.15;100.00;102468.00;5103369;28;20062;-52
2022/04/29 09:18:51;;;;;;;6.25;2.55;;;;;;;9.05;100.00;102461.00;5099186;28;20029;-52
2022/04/29 09:21:27;;;;;;;4.43;1.20;;;;;;;8.91;100.00;102470.97;5084749;28;20042;-50
2022/04/29 09:24:03;;;;;;;3.10;1.13;;;;;;;8.89;100.00;102467.63;5098058;28;20051;-51
2022/04/29 09:26:36;;;;;;;5.63;1.50;;;;;;;8.79;100.00;102469.38;5105936;28;20027;-48
2022/04/29 09:29:39;;;;;;;5.20;1.42;;;;;;;8.90;100.00;102473.75;5103477;28;20055;-51
2022/04/29 09:32:05;;;;;;;2.10;1.13;;;;;;;9.13;100.00;102477.06;5078332;28;20052;-48
2022/04/29 09:34:50;;;;;;;3.75;1.20;;;;;;;9.26;100.00;102477.66;5100486;28;20046;-49
2022/04/29 09:37:17;;;;;;;8.50;2.75;;;;;;;9.26;100.00;102472.38;5094087;28;20054;-50
2022/04/29 09:39:56;;;;;;;3.03;0.85;;;;;;;9.15;100.00;102473.31;5106387;28;20445;-50
2022/04/29 09:42:22;;;;;;;4.65;1.45;;;;;;;9.05;100.00;102479.53;5106270;28;20039;-48
2022/04/29 09:44:47;;;;;;;2.13;1.20;;;;;;;9.08;100.00;102474.81;5110743;28;20103;-51
2022/04/29 09:47:15;;;;;;;2.85;1.40;;;;;;;9.26;100.00;102467.06;5105334;28;20481;-46
2022/04/29 09:49:52;;;;;;;5.47;1.55;;;;;;;9.36;100.00;102461.81;5110774;28;20027;-50
2022/04/29 09:52:19;;;;;;;1.95;0.73;;;;;;;9.38;100.00;102460.72;5105804;28;20036;-52
2022/04/29 09:54:44;;;;;;;6.25;1.73;;;;;;;9.40;100.00;102468.53;5111579;28;20035;-51
2022/04/29 09:57:14;;;;;;;5.28;1.02;;;;;;;9.44;100.00;102461.16;5110371;28;20034;-45
2022/04/29 09:59:43;;;;;;;2.53;1.65;;;;;;;9.39;100.00;102457.09;5105255;28;21090;-47
2022/04/29 10:02:10;;;;;;;6.13;1.88;;;;;;;9.31;100.00;102462.22;5099308;28;20036;-49
2022/04/29 10:04:40;;;;;;;3.60;1.40;;;;;;;9.16;100.00;102469.72;5096246;28;20036;-51
2022/04/29 10:07:07;;;;;;;3.75;1.58;;;;;;;9.04;100.00;102470.75;5097805;28;20443;-52
2022/04/29 10:09:35;;;;;;;7.60;1.35;;;;;;;8.99;100.00;102469.50;5111140;28;20031;-47
2022/04/29 10:12:07;;;;;;;2.05;1.42;;;;;;;8.91;100.00;102470.97;5106323;28;20047;-51
2022/04/29 10:14:36;;;;;;;3.65;1.35;;;;;;;9.01;100.00;102475.47;5103572;28;20438;-49
2022/04/29 10:22:40;;;;;;;2.05;1.00;;;;;;;9.67;100.00;102454.66;5097509;28;20400;-47
2022/04/29 10:25:08;;;;;;;2.70;0.70;;;;;;;9.98;100.00;102450.06;5110583;28;20058;-48
2022/04/29 10:27:36;;;;;;;2.55;0.43;;;;;;;10.23;100.00;102461.94;5109778;28;20453;-48
2022/04/29 10:30:02;;;;;;;3.42;0.82;;;;;;;10.23;100.00;102459.28;5111271;28;20027;-47
2022/04/29 10:32:27;;;;;;;1.42;1.13;;;;;;;10.10;100.00;102456.09;5103202;28;20486;-51
2022/04/29 10:34:55;;;;;;;5.93;0.88;;;;;;;10.02;100.00;102458.59;5105977;28;20028;-52
2022/04/29 10:37:31;;;;;;;0.77;0.75;;;;;;;9.80;100.00;102457.88;5107754;28;20035;-47
2022/04/29 10:40:09;;;;;;;1.63;0.40;;;;;;;9.88;100.00;102465.13;5101912;28;20261;-49
2022/04/29 10:43:08;;;;;;;1.75;0.70;;;;;;;9.95;100.00;102462.78;5092841;28;20035;-47
2022/04/29 10:45:35;;;;;;;1.38;1.13;;;;;;;9.95;100.00;102473.38;5100450;28;20125;-47
2022/04/29 10:48:36;;;;;;;2.17;0.47;;;;;;;9.99;100.00;102461.50;5094825;28;20564;-46
2022/04/29 10:51:11;;;;;;;3.67;0.50;;;;;;;10.08;100.00;102458.03;5056817;28;20570;-47
2022/04/29 10:53:40;;;;;;;1.75;1.08;;;;;;;10.19;100.00;102463.19;5099298;28;20113;-46
2022/04/29 10:56:36;;;;;;;5.55;0.80;;;;;;;10.40;100.00;102460.44;5100349;28;20335;-49
2022/04/29 10:59:04;;;;;;;2.67;0.50;;;;;;;10.34;100.00;102463.63;5090269;28;20044;-48
2022/04/29 11:01:34;;;;;;;1.48;0.70;;;;;;;10.33;100.00;102461.13;5098933;28;20041;-48
2022/04/29 11:04:09;;;;;;;3.20;1.05;;;;;;;10.29;100.00;102459.72;5099812;28;20038;-47
2022/04/29 11:06:38;;;;;;;0.88;0.40;;;;;;;10.14;100.00;102452.16;5098973;28;20118;-51
2022/04/29 11:09:26;;;;;;;2.13;0.93;;;;;;;10.09;100.00;102458.88;5082923;28;20044;-48
2022/04/29 11:11:52;;;;;;;6.55;0.60;;;;;;;9.99;100.00;102453.56;5099234;28;20597;-45
2022/04/29 11:14:17;;;;;;;4.60;1.20;;;;;;;9.89;100.00;102472.13;5100066;28;20027;-50
2022/04/29 11:16:52;;;;;;;1.10;0.68;;;;;;;9.70;100.00;102464.97;5081851;28;20039;-50
2022/04/29 11:19:22;;;;;;;1.08;0.93;;;;;;;9.51;100.00;102459.63;5093293;28;20917;-48
2022/04/29 11:24:50;;;;;;;2.13;0.85;;;;;;;8.95;100.00;102459.13;5099175;28;20126;-53
2022/04/29 11:27:25;;;;;;;6.13;0.80;;;;;;;8.76;100.00;102464.34;5104219;28;20051;-49
2022/04/29 11:29:52;;;;;;;9.50;0.88;;;;;;;8.73;100.00;102457.50;5100391;28;21247;-51
2022/04/29 11:32:24;;;;;;;1.65;0.75;;;;;;;8.77;100.00;102454.59;5096025;28;20692;-51
2022/04/29 11:34:57;;;;;;;3.03;0.80;;;;;;;8.90;100.00;102456.06;5089754;28;20028;-45
2022/04/29 11:37:28;;;;;;;3.38;1.05;;;;;;;8.97;100.00;102445.78;5096588;28;20039;-45
2022/04/29 11:40:00;;;;;;;4.88;0.80;;;;;;;9.18;100.00;102440.44;5103202;28;20495;-46
2022/04/29 11:42:26;;;;;;;3.53;0.65;;;;;;;9.46;100.00;102446.81;5100993;28;20035;-46
2022/04/29 11:44:51;;;;;;;1.17;0.38;;;;;;;9.59;100.00;102450.03;5095116;28;20026;-48
2022/04/29 11:47:30;;;;;;;0.93;0.50;;;;;;;9.58;100.00;102442.25;5087370;28;20031;-49
2022/04/29 11:49:55;;;;;;;8.50;0.90;;;;;;;9.52;100.00;102445.41;5100226;28;20024;-46